Brunswick, NE (68720)

1:31 PM CDT on April 26, 2017 (GMT -0500)
south | | Change Station
Active Advisory: Freeze Warning

Elev 1640 ft 42.51 °N, 97.96 °W | Updated 50 seconds ago

Overcast
Overcast
36.5 °F
Feels Like 33 °F
N
4.0
Wind Variable Wind from NNW
Gusts 4.9 mph

Today
High -- | Low -- °F
--% Chance of Precip.
Yesterday
High -- | Low -- °F
Precip. -- in
Pressure 29.76 in
Visibility 10.0 miles
Clouds Overcast 1500 ft
Windchill 33 °F
Dew Point 32 °F
Humidity 85%
Rainfall 0.00 in
Snow Depth Not available.
6:33 AM 8:26 PM
New Moon, 0% visible
METAR KOFK 261756Z AUTO 33014G23KT 10SM OVC015 03/M02 A2972 RMK AO2 PK WND 33028/1657 SLP077 T00281017 10028 20006 53021
Pressure 29.76 in
Visibility 10.0 miles
Clouds Overcast 1500 ft
Windchill 33 °F
Dew Point 32 °F
Humidity 85%
Rainfall 0.00 in
Snow Depth Not available.
6:33 AM 8:26 PM
New Moon, 0% visible
METAR KOFK 261756Z AUTO 33014G23KT 10SM OVC015 03/M02 A2972 RMK AO2 PK WND 33028/1657 SLP077 T00281017 10028 20006 53021

Get Your Daily Forecast Email!

Thanks for signing up!

Be on the lookout for a verification email in your inbox.

You'll start receiving severe weather alerts in your inbox..

×

10-Day Weather Forecast

Almanac

Astronomy

Apr. 26, 2017 Rise Set
Actual Time
Civil Twilight
Nautical Twilight
Astronomical Twilight
Moon
Length of Visible Light
Length of Day
Tomorrow will be .
, % of the Moon is Illuminated

Today's Extremes

State Highs State Lows

Community

WunderPhotos

WunderBlog® & News

Nearby

Air Quality

  Air Quality AQ Index Pollutant
Not available.

Snow Depth

Station Depth Elevation

Earthquake Activity

City Distance Mag. Time & Date
Minimum magnitude displayed is 2.5.

Coastal Water Temperatures

Place Temperature

Stations

Nearby Weather Stations

Station Location Temp. Windchill Dew Point Humidity Wind Precip. Elev Updated Type
                   

Watches & Warnings

Freeze Warning
Issued: 8:33 AM CDT Apr. 26, 2017 – National Weather Service

... Freeze warning in effect from midnight tonight to 9 am CDT
Thursday...

The National Weather Service in Omaha/valley has issued a freeze
warning, which is in effect from midnight tonight to 9 am CDT
Thursday. The frost advisory is no longer in effect.

* Temperature... widespread temperatures of 29 to 32 degrees are
expected, with colder temperatures possible in low-lying spots
and cold drainage areas.

* Impacts... sensitive outdoor vegetation may be damaged or killed
if left unprotected.

* Uncertainty... cloudier skies or winds remaining light instead of
calm would keep temperatures on the higher side of the
forecasted range, while calm and clear conditions for longer
periods would allow the colder temperatures to occur.

Precautionary/preparedness actions...

A freeze warning means sub-freezing temperatures are imminent or
highly likely. These conditions will kill crops and other
sensitive vegetation.